sensor_id;sensor_type;location;lat;lon;timestamp;P1;durP1;ratioP1;P2;durP2;ratioP2
21181;SDS011;10749;46.296;7.524;2023-03-21T00:01:26;1.60;;;0.90;;
21181;SDS011;10749;46.296;7.524;2023-03-21T00:03:51;3.53;;;1.30;;
21181;SDS011;10749;46.296;7.524;2023-03-21T00:06:16;4.00;;;1.20;;
21181;SDS011;10749;46.296;7.524;2023-03-21T00:08:42;2.83;;;1.10;;
21181;SDS011;10749;46.296;7.524;2023-03-21T00:11:09;5.40;;;1.30;;
21181;SDS011;10749;46.296;7.524;2023-03-21T00:13:36;2.30;;;1.30;;
21181;SDS011;10749;46.296;7.524;2023-03-21T00:18:33;2.37;;;1.07;;
21181;SDS011;10749;46.296;7.524;2023-03-21T00:21:06;2.23;;;1.00;;
21181;SDS011;10749;46.296;7.524;2023-03-21T00:23:32;4.40;;;1.13;;
21181;SDS011;10749;46.296;7.524;2023-03-21T00:25:58;2.17;;;1.00;;
21181;SDS011;10749;46.296;7.524;2023-03-21T00:28:24;2.90;;;1.00;;
21181;SDS011;10749;46.296;7.524;2023-03-21T00:30:50;2.03;;;0.90;;
21181;SDS011;10749;46.296;7.524;2023-03-21T00:33:15;2.57;;;1.00;;
21181;SDS011;10749;46.296;7.524;2023-03-21T00:35:44;3.03;;;1.00;;
21181;SDS011;10749;46.296;7.524;2023-03-21T00:38:12;2.67;;;1.20;;
21181;SDS011;10749;46.296;7.524;2023-03-21T00:40:38;3.20;;;1.10;;
21181;SDS011;10749;46.296;7.524;2023-03-21T00:43:03;2.60;;;1.10;;
21181;SDS011;10749;46.296;7.524;2023-03-21T00:45:29;1.87;;;1.03;;
21181;SDS011;10749;46.296;7.524;2023-03-21T00:47:55;1.13;;;0.83;;
21181;SDS011;10749;46.296;7.524;2023-03-21T00:50:21;2.10;;;1.13;;
21181;SDS011;10749;46.296;7.524;2023-03-21T00:52:46;2.40;;;0.90;;
21181;SDS011;10749;46.296;7.524;2023-03-21T00:55:15;1.10;;;0.90;;
21181;SDS011;10749;46.296;7.524;2023-03-21T00:57:41;1.77;;;1.10;;
21181;SDS011;10749;46.296;7.524;2023-03-21T01:00:08;2.00;;;1.00;;
21181;SDS011;10749;46.296;7.524;2023-03-21T01:02:36;2.67;;;1.00;;
21181;SDS011;10749;46.296;7.524;2023-03-21T01:05:02;1.20;;;0.67;;
21181;SDS011;10749;46.296;7.524;2023-03-21T01:07:28;1.83;;;0.97;;
21181;SDS011;10749;46.296;7.524;2023-03-21T01:09:54;1.83;;;1.10;;
21181;SDS011;10749;46.296;7.524;2023-03-21T01:12:19;1.60;;;0.93;;
21181;SDS011;10749;46.296;7.524;2023-03-21T01:14:44;1.63;;;0.80;;
21181;SDS011;10749;46.296;7.524;2023-03-21T01:17:10;4.60;;;1.23;;
21181;SDS011;10749;46.296;7.524;2023-03-21T01:19:35;2.80;;;1.00;;
21181;SDS011;10749;46.296;7.524;2023-03-21T01:22:00;2.70;;;1.20;;
21181;SDS011;10749;46.296;7.524;2023-03-21T01:24:25;1.23;;;0.87;;
21181;SDS011;10749;46.296;7.524;2023-03-21T01:26:51;2.47;;;1.00;;
21181;SDS011;10749;46.296;7.524;2023-03-21T01:29:16;2.40;;;0.90;;
21181;SDS011;10749;46.296;7.524;2023-03-21T01:31:41;1.50;;;0.80;;
21181;SDS011;10749;46.296;7.524;2023-03-21T01:34:07;1.77;;;0.90;;
21181;SDS011;10749;46.296;7.524;2023-03-21T01:36:32;1.27;;;0.87;;
21181;SDS011;10749;46.296;7.524;2023-03-21T01:38:57;1.83;;;0.80;;
21181;SDS011;10749;46.296;7.524;2023-03-21T01:41:27;0.97;;;0.80;;
21181;SDS011;10749;46.296;7.524;2023-03-21T01:43:57;1.47;;;0.67;;
21181;SDS011;10749;46.296;7.524;2023-03-21T01:46:34;1.77;;;0.70;;
21181;SDS011;10749;46.296;7.524;2023-03-21T01:49:08;2.40;;;0.67;;
21181;SDS011;10749;46.296;7.524;2023-03-21T01:51:41;1.97;;;0.87;;
21181;SDS011;10749;46.296;7.524;2023-03-21T01:54:11;1.77;;;0.90;;
21181;SDS011;10749;46.296;7.524;2023-03-21T01:56:41;1.63;;;1.10;;
21181;SDS011;10749;46.296;7.524;2023-03-21T01:59:11;1.77;;;0.90;;
21181;SDS011;10749;46.296;7.524;2023-03-21T02:01:45;2.10;;;0.87;;
21181;SDS011;10749;46.296;7.524;2023-03-21T02:04:11;1.10;;;0.70;;
21181;SDS011;10749;46.296;7.524;2023-03-21T02:06:39;1.60;;;1.00;;
21181;SDS011;10749;46.296;7.524;2023-03-21T02:09:11;1.83;;;1.10;;
21181;SDS011;10749;46.296;7.524;2023-03-21T02:11:40;1.10;;;0.73;;
21181;SDS011;10749;46.296;7.524;2023-03-21T02:14:11;1.97;;;0.83;;
21181;SDS011;10749;46.296;7.524;2023-03-21T02:23:15;2.97;;;1.10;;
21181;SDS011;10749;46.296;7.524;2023-03-21T02:28:56;0.63;;;0.63;;
21181;SDS011;10749;46.296;7.524;2023-03-21T02:31:40;3.10;;;0.83;;
21181;SDS011;10749;46.296;7.524;2023-03-21T02:43:12;1.93;;;0.87;;
21181;SDS011;10749;46.296;7.524;2023-03-21T02:45:48;2.20;;;1.10;;
21181;SDS011;10749;46.296;7.524;2023-03-21T02:48:19;2.33;;;0.70;;
21181;SDS011;10749;46.296;7.524;2023-03-21T02:50:51;2.37;;;0.90;;
21181;SDS011;10749;46.296;7.524;2023-03-21T02:53:21;1.20;;;0.97;;
21181;SDS011;10749;46.296;7.524;2023-03-21T02:55:51;1.53;;;0.80;;
21181;SDS011;10749;46.296;7.524;2023-03-21T02:58:19;1.07;;;0.83;;
21181;SDS011;10749;46.296;7.524;2023-03-21T03:00:47;2.03;;;1.00;;
21181;SDS011;10749;46.296;7.524;2023-03-21T03:03:13;2.73;;;1.00;;
21181;SDS011;10749;46.296;7.524;2023-03-21T03:06:00;2.20;;;1.00;;
21181;SDS011;10749;46.296;7.524;2023-03-21T03:08:29;2.90;;;1.00;;
21181;SDS011;10749;46.296;7.524;2023-03-21T03:19:28;1.90;;;1.10;;
21181;SDS011;10749;46.296;7.524;2023-03-21T03:22:05;3.27;;;1.00;;
21181;SDS011;10749;46.296;7.524;2023-03-21T03:27:31;1.17;;;0.70;;
21181;SDS011;10749;46.296;7.524;2023-03-21T03:30:00;1.17;;;0.80;;
21181;SDS011;10749;46.296;7.524;2023-03-21T03:32:46;1.87;;;0.80;;
21181;SDS011;10749;46.296;7.524;2023-03-21T03:35:16;3.20;;;1.30;;
21181;SDS011;10749;46.296;7.524;2023-03-21T03:37:44;1.13;;;0.73;;
21181;SDS011;10749;46.296;7.524;2023-03-21T03:40:17;1.20;;;0.63;;
21181;SDS011;10749;46.296;7.524;2023-03-21T03:42:53;0.83;;;0.73;;
21181;SDS011;10749;46.296;7.524;2023-03-21T03:45:22;2.30;;;0.93;;
21181;SDS011;10749;46.296;7.524;2023-03-21T03:55:56;2.03;;;0.90;;
21181;SDS011;10749;46.296;7.524;2023-03-21T03:58:24;2.03;;;0.83;;
21181;SDS011;10749;46.296;7.524;2023-03-21T04:00:51;1.43;;;1.07;;
21181;SDS011;10749;46.296;7.524;2023-03-21T04:03:18;1.47;;;0.77;;
21181;SDS011;10749;46.296;7.524;2023-03-21T04:05:43;1.37;;;0.93;;
21181;SDS011;10749;46.296;7.524;2023-03-21T04:08:12;1.10;;;0.90;;
21181;SDS011;10749;46.296;7.524;2023-03-21T04:10:39;1.50;;;0.80;;
21181;SDS011;10749;46.296;7.524;2023-03-21T04:13:05;2.90;;;0.83;;
21181;SDS011;10749;46.296;7.524;2023-03-21T04:15:31;2.77;;;1.10;;
21181;SDS011;10749;46.296;7.524;2023-03-21T04:17:56;2.13;;;1.10;;
21181;SDS011;10749;46.296;7.524;2023-03-21T04:20:22;1.40;;;0.73;;
21181;SDS011;10749;46.296;7.524;2023-03-21T04:22:48;1.40;;;0.80;;
21181;SDS011;10749;46.296;7.524;2023-03-21T04:25:13;1.50;;;0.87;;
21181;SDS011;10749;46.296;7.524;2023-03-21T04:27:39;1.67;;;0.90;;
21181;SDS011;10749;46.296;7.524;2023-03-21T04:30:05;1.30;;;0.90;;
21181;SDS011;10749;46.296;7.524;2023-03-21T04:32:31;1.90;;;0.90;;
21181;SDS011;10749;46.296;7.524;2023-03-21T04:34:58;1.40;;;0.83;;
21181;SDS011;10749;46.296;7.524;2023-03-21T04:37:26;1.90;;;0.93;;
21181;SDS011;10749;46.296;7.524;2023-03-21T04:39:52;2.57;;;0.93;;
21181;SDS011;10749;46.296;7.524;2023-03-21T04:42:17;1.73;;;0.80;;
21181;SDS011;10749;46.296;7.524;2023-03-21T04:44:43;2.73;;;1.10;;
21181;SDS011;10749;46.296;7.524;2023-03-21T04:47:09;2.67;;;0.90;;
21181;SDS011;10749;46.296;7.524;2023-03-21T04:49:37;2.60;;;1.00;;
21181;SDS011;10749;46.296;7.524;2023-03-21T04:52:02;1.67;;;0.90;;
21181;SDS011;10749;46.296;7.524;2023-03-21T04:54:28;1.47;;;0.90;;
21181;SDS011;10749;46.296;7.524;2023-03-21T04:56:53;2.03;;;1.00;;
21181;SDS011;10749;46.296;7.524;2023-03-21T04:59:19;3.07;;;1.00;;
21181;SDS011;10749;46.296;7.524;2023-03-21T05:01:45;2.20;;;1.10;;
21181;SDS011;10749;46.296;7.524;2023-03-21T05:04:11;1.37;;;0.90;;
21181;SDS011;10749;46.296;7.524;2023-03-21T05:06:38;2.60;;;1.03;;
21181;SDS011;10749;46.296;7.524;2023-03-21T05:09:04;2.60;;;0.93;;
21181;SDS011;10749;46.296;7.524;2023-03-21T05:11:30;1.77;;;1.00;;
21181;SDS011;10749;46.296;7.524;2023-03-21T05:13:57;1.43;;;0.97;;
21181;SDS011;10749;46.296;7.524;2023-03-21T05:16:23;0.80;;;0.50;;
21181;SDS011;10749;46.296;7.524;2023-03-21T05:18:53;1.97;;;0.90;;
21181;SDS011;10749;46.296;7.524;2023-03-21T05:21:19;4.20;;;0.83;;
21181;SDS011;10749;46.296;7.524;2023-03-21T05:23:46;1.67;;;0.70;;
21181;SDS011;10749;46.296;7.524;2023-03-21T05:26:18;2.40;;;0.50;;
21181;SDS011;10749;46.296;7.524;2023-03-21T05:28:45;2.03;;;0.73;;
21181;SDS011;10749;46.296;7.524;2023-03-21T05:31:12;1.27;;;0.77;;
21181;SDS011;10749;46.296;7.524;2023-03-21T05:33:40;4.30;;;1.00;;
21181;SDS011;10749;46.296;7.524;2023-03-21T05:36:06;4.47;;;0.80;;
21181;SDS011;10749;46.296;7.524;2023-03-21T05:38:32;1.37;;;0.60;;
21181;SDS011;10749;46.296;7.524;2023-03-21T05:40:57;0.77;;;0.60;;
21181;SDS011;10749;46.296;7.524;2023-03-21T05:43:22;1.20;;;0.83;;
21181;SDS011;10749;46.296;7.524;2023-03-21T05:45:48;1.67;;;0.70;;
21181;SDS011;10749;46.296;7.524;2023-03-21T05:48:13;1.10;;;0.70;;
21181;SDS011;10749;46.296;7.524;2023-03-21T05:50:38;1.43;;;1.00;;
21181;SDS011;10749;46.296;7.524;2023-03-21T05:53:04;2.43;;;1.10;;
21181;SDS011;10749;46.296;7.524;2023-03-21T05:55:29;2.57;;;0.97;;
21181;SDS011;10749;46.296;7.524;2023-03-21T05:57:54;3.23;;;1.00;;
21181;SDS011;10749;46.296;7.524;2023-03-21T06:00:20;4.60;;;1.10;;
21181;SDS011;10749;46.296;7.524;2023-03-21T06:02:46;1.63;;;0.90;;
21181;SDS011;10749;46.296;7.524;2023-03-21T06:05:11;3.03;;;0.90;;
21181;SDS011;10749;46.296;7.524;2023-03-21T06:07:36;3.23;;;0.93;;
21181;SDS011;10749;46.296;7.524;2023-03-21T06:10:03;3.53;;;1.00;;
21181;SDS011;10749;46.296;7.524;2023-03-21T06:12:28;1.27;;;0.90;;
21181;SDS011;10749;46.296;7.524;2023-03-21T06:14:54;1.37;;;0.90;;
21181;SDS011;10749;46.296;7.524;2023-03-21T06:17:20;1.10;;;0.70;;
21181;SDS011;10749;46.296;7.524;2023-03-21T06:19:45;2.40;;;1.00;;
21181;SDS011;10749;46.296;7.524;2023-03-21T06:22:10;1.90;;;1.23;;
21181;SDS011;10749;46.296;7.524;2023-03-21T06:24:36;1.43;;;1.10;;
21181;SDS011;10749;46.296;7.524;2023-03-21T06:27:01;2.47;;;1.13;;
21181;SDS011;10749;46.296;7.524;2023-03-21T06:29:26;2.40;;;1.10;;
21181;SDS011;10749;46.296;7.524;2023-03-21T06:31:51;3.80;;;1.30;;
21181;SDS011;10749;46.296;7.524;2023-03-21T06:34:17;7.00;;;1.43;;
21181;SDS011;10749;46.296;7.524;2023-03-21T06:36:42;1.63;;;1.03;;
21181;SDS011;10749;46.296;7.524;2023-03-21T06:39:08;2.57;;;1.23;;
21181;SDS011;10749;46.296;7.524;2023-03-21T06:41:34;3.63;;;1.23;;
21181;SDS011;10749;46.296;7.524;2023-03-21T06:44:00;2.07;;;1.27;;
21181;SDS011;10749;46.296;7.524;2023-03-21T06:46:25;2.03;;;1.30;;
21181;SDS011;10749;46.296;7.524;2023-03-21T06:48:51;1.70;;;1.20;;
21181;SDS011;10749;46.296;7.524;2023-03-21T06:51:16;3.37;;;1.33;;
21181;SDS011;10749;46.296;7.524;2023-03-21T06:53:42;3.20;;;1.30;;
21181;SDS011;10749;46.296;7.524;2023-03-21T06:56:08;3.03;;;1.10;;
21181;SDS011;10749;46.296;7.524;2023-03-21T06:58:35;2.40;;;1.43;;
21181;SDS011;10749;46.296;7.524;2023-03-21T07:01:00;2.17;;;1.20;;
21181;SDS011;10749;46.296;7.524;2023-03-21T07:03:27;2.70;;;1.40;;
21181;SDS011;10749;46.296;7.524;2023-03-21T07:05:53;2.07;;;1.30;;
21181;SDS011;10749;46.296;7.524;2023-03-21T07:08:18;3.80;;;1.60;;
21181;SDS011;10749;46.296;7.524;2023-03-21T07:10:44;3.27;;;1.80;;
21181;SDS011;10749;46.296;7.524;2023-03-21T07:13:11;2.47;;;1.33;;
21181;SDS011;10749;46.296;7.524;2023-03-21T07:15:36;5.13;;;1.60;;
21181;SDS011;10749;46.296;7.524;2023-03-21T07:18:02;3.90;;;1.37;;
21181;SDS011;10749;46.296;7.524;2023-03-21T07:20:31;2.30;;;1.40;;
21181;SDS011;10749;46.296;7.524;2023-03-21T07:22:57;8.87;;;1.80;;
21181;SDS011;10749;46.296;7.524;2023-03-21T07:25:23;3.43;;;1.40;;
21181;SDS011;10749;46.296;7.524;2023-03-21T07:27:48;4.30;;;1.60;;
21181;SDS011;10749;46.296;7.524;2023-03-21T07:30:14;4.37;;;1.90;;
21181;SDS011;10749;46.296;7.524;2023-03-21T07:32:40;4.50;;;1.90;;
21181;SDS011;10749;46.296;7.524;2023-03-21T07:35:07;3.60;;;1.70;;
21181;SDS011;10749;46.296;7.524;2023-03-21T07:37:36;3.30;;;1.47;;
21181;SDS011;10749;46.296;7.524;2023-03-21T07:40:01;7.07;;;1.50;;
21181;SDS011;10749;46.296;7.524;2023-03-21T07:42:33;3.73;;;1.03;;
21181;SDS011;10749;46.296;7.524;2023-03-21T07:44:58;2.23;;;1.30;;
21181;SDS011;10749;46.296;7.524;2023-03-21T07:47:24;2.60;;;1.30;;
21181;SDS011;10749;46.296;7.524;2023-03-21T07:49:49;3.00;;;1.20;;
21181;SDS011;10749;46.296;7.524;2023-03-21T07:52:15;4.77;;;1.50;;
21181;SDS011;10749;46.296;7.524;2023-03-21T07:54:40;1.97;;;1.10;;
21181;SDS011;10749;46.296;7.524;2023-03-21T07:57:06;3.70;;;1.43;;
21181;SDS011;10749;46.296;7.524;2023-03-21T07:59:31;2.17;;;1.13;;
21181;SDS011;10749;46.296;7.524;2023-03-21T08:01:56;2.00;;;1.10;;
21181;SDS011;10749;46.296;7.524;2023-03-21T08:04:22;1.70;;;1.40;;
21181;SDS011;10749;46.296;7.524;2023-03-21T08:06:47;2.20;;;1.20;;
21181;SDS011;10749;46.296;7.524;2023-03-21T08:09:15;4.53;;;1.77;;
21181;SDS011;10749;46.296;7.524;2023-03-21T08:11:40;3.67;;;1.33;;
21181;SDS011;10749;46.296;7.524;2023-03-21T08:14:05;4.63;;;1.50;;
21181;SDS011;10749;46.296;7.524;2023-03-21T08:16:31;3.93;;;1.50;;
21181;SDS011;10749;46.296;7.524;2023-03-21T08:18:56;2.50;;;1.50;;
21181;SDS011;10749;46.296;7.524;2023-03-21T08:21:21;4.30;;;1.40;;
21181;SDS011;10749;46.296;7.524;2023-03-21T08:23:47;2.50;;;1.10;;
21181;SDS011;10749;46.296;7.524;2023-03-21T08:26:12;3.63;;;1.10;;
21181;SDS011;10749;46.296;7.524;2023-03-21T08:28:39;2.87;;;1.33;;
21181;SDS011;10749;46.296;7.524;2023-03-21T08:31:06;4.93;;;1.37;;
21181;SDS011;10749;46.296;7.524;2023-03-21T08:33:32;3.83;;;1.60;;
21181;SDS011;10749;46.296;7.524;2023-03-21T08:35:59;5.43;;;1.47;;
21181;SDS011;10749;46.296;7.524;2023-03-21T08:38:24;3.53;;;1.23;;
21181;SDS011;10749;46.296;7.524;2023-03-21T08:40:53;4.77;;;1.50;;
21181;SDS011;10749;46.296;7.524;2023-03-21T08:43:19;4.37;;;1.53;;
21181;SDS011;10749;46.296;7.524;2023-03-21T08:45:44;2.67;;;1.57;;
21181;SDS011;10749;46.296;7.524;2023-03-21T08:48:10;2.83;;;1.13;;
21181;SDS011;10749;46.296;7.524;2023-03-21T08:50:35;3.67;;;1.20;;
21181;SDS011;10749;46.296;7.524;2023-03-21T08:53:00;4.17;;;1.60;;
21181;SDS011;10749;46.296;7.524;2023-03-21T08:55:26;2.50;;;1.20;;
21181;SDS011;10749;46.296;7.524;2023-03-21T08:57:51;2.27;;;0.77;;
21181;SDS011;10749;46.296;7.524;2023-03-21T09:00:16;4.57;;;0.90;;
21181;SDS011;10749;46.296;7.524;2023-03-21T09:02:44;1.60;;;0.70;;
21181;SDS011;10749;46.296;7.524;2023-03-21T09:05:12;2.47;;;1.10;;
21181;SDS011;10749;46.296;7.524;2023-03-21T09:07:39;2.43;;;0.53;;
21181;SDS011;10749;46.296;7.524;2023-03-21T09:10:06;2.17;;;0.63;;
21181;SDS011;10749;46.296;7.524;2023-03-21T09:12:34;2.27;;;0.60;;
21181;SDS011;10749;46.296;7.524;2023-03-21T09:14:59;3.37;;;0.60;;
21181;SDS011;10749;46.296;7.524;2023-03-21T09:17:27;2.30;;;0.50;;
21181;SDS011;10749;46.296;7.524;2023-03-21T09:19:53;0.60;;;0.40;;
21181;SDS011;10749;46.296;7.524;2023-03-21T09:22:18;3.80;;;0.60;;
21181;SDS011;10749;46.296;7.524;2023-03-21T09:24:45;0.67;;;0.50;;
21181;SDS011;10749;46.296;7.524;2023-03-21T09:27:13;1.53;;;0.80;;
21181;SDS011;10749;46.296;7.524;2023-03-21T09:29:41;1.97;;;0.60;;
21181;SDS011;10749;46.296;7.524;2023-03-21T09:32:09;0.70;;;0.30;;
21181;SDS011;10749;46.296;7.524;2023-03-21T09:34:36;1.90;;;0.40;;
21181;SDS011;10749;46.296;7.524;2023-03-21T09:37:05;1.73;;;0.50;;
21181;SDS011;10749;46.296;7.524;2023-03-21T09:39:34;1.93;;;0.40;;
21181;SDS011;10749;46.296;7.524;2023-03-21T09:42:06;3.17;;;0.60;;
21181;SDS011;10749;46.296;7.524;2023-03-21T09:50:00;2.53;;;0.60;;
21181;SDS011;10749;46.296;7.524;2023-03-21T09:52:30;0.90;;;0.30;;
21181;SDS011;10749;46.296;7.524;2023-03-21T09:55:04;0.53;;;0.43;;
21181;SDS011;10749;46.296;7.524;2023-03-21T09:57:43;1.10;;;0.40;;
21181;SDS011;10749;46.296;7.524;2023-03-21T10:00:12;2.07;;;0.40;;
21181;SDS011;10749;46.296;7.524;2023-03-21T10:02:47;0.80;;;0.63;;
21181;SDS011;10749;46.296;7.524;2023-03-21T10:05:20;2.37;;;0.70;;
21181;SDS011;10749;46.296;7.524;2023-03-21T10:08:11;1.03;;;0.50;;
21181;SDS011;10749;46.296;7.524;2023-03-21T10:10:41;0.70;;;0.40;;
21181;SDS011;10749;46.296;7.524;2023-03-21T10:13:13;1.38;;;0.50;;
21181;SDS011;10749;46.296;7.524;2023-03-21T10:15:44;0.30;;;0.30;;
21181;SDS011;10749;46.296;7.524;2023-03-21T10:18:11;1.53;;;0.50;;
21181;SDS011;10749;46.296;7.524;2023-03-21T10:20:43;2.10;;;0.33;;
21181;SDS011;10749;46.296;7.524;2023-03-21T10:23:12;1.00;;;0.30;;
21181;SDS011;10749;46.296;7.524;2023-03-21T10:28:11;2.00;;;0.30;;
21181;SDS011;10749;46.296;7.524;2023-03-21T10:30:43;0.35;;;0.35;;
21181;SDS011;10749;46.296;7.524;2023-03-21T10:33:47;0.63;;;0.30;;
21181;SDS011;10749;46.296;7.524;2023-03-21T10:36:07;0.50;;;0.20;;
21181;SDS011;10749;46.296;7.524;2023-03-21T10:38:35;0.40;;;0.30;;
21181;SDS011;10749;46.296;7.524;2023-03-21T10:41:08;0.70;;;0.33;;
21181;SDS011;10749;46.296;7.524;2023-03-21T10:43:35;1.07;;;0.30;;
21181;SDS011;10749;46.296;7.524;2023-03-21T10:46:08;2.10;;;0.50;;
21181;SDS011;10749;46.296;7.524;2023-03-21T10:48:37;1.90;;;0.30;;
21181;SDS011;10749;46.296;7.524;2023-03-21T10:51:05;1.53;;;0.50;;
21181;SDS011;10749;46.296;7.524;2023-03-21T10:53:40;0.33;;;0.30;;
21181;SDS011;10749;46.296;7.524;2023-03-21T10:56:11;1.13;;;0.40;;
21181;SDS011;10749;46.296;7.524;2023-03-21T10:58:38;0.30;;;0.30;;
21181;SDS011;10749;46.296;7.524;2023-03-21T11:01:09;1.27;;;0.30;;
21181;SDS011;10749;46.296;7.524;2023-03-21T11:03:39;1.67;;;0.43;;
21181;SDS011;10749;46.296;7.524;2023-03-21T11:09:06;0.45;;;0.32;;
21181;SDS011;10749;46.296;7.524;2023-03-21T11:11:36;0.95;;;0.45;;
21181;SDS011;10749;46.296;7.524;2023-03-21T11:14:04;0.38;;;0.30;;
21181;SDS011;10749;46.296;7.524;2023-03-21T11:16:39;0.45;;;0.30;;
21181;SDS011;10749;46.296;7.524;2023-03-21T11:19:14;0.57;;;0.30;;
21181;SDS011;10749;46.296;7.524;2023-03-21T11:21:41;1.25;;;0.30;;
21181;SDS011;10749;46.296;7.524;2023-03-21T11:24:11;2.20;;;0.60;;
21181;SDS011;10749;46.296;7.524;2023-03-21T11:26:39;0.95;;;0.38;;
21181;SDS011;10749;46.296;7.524;2023-03-21T11:29:11;1.20;;;0.45;;
21181;SDS011;10749;46.296;7.524;2023-03-21T11:31:47;1.13;;;0.57;;
21181;SDS011;10749;46.296;7.524;2023-03-21T11:34:22;0.65;;;0.55;;
21181;SDS011;10749;46.296;7.524;2023-03-21T11:36:51;0.93;;;0.57;;
21181;SDS011;10749;46.296;7.524;2023-03-21T11:39:32;1.38;;;0.40;;
21181;SDS011;10749;46.296;7.524;2023-03-21T11:42:01;1.08;;;0.68;;
21181;SDS011;10749;46.296;7.524;2023-03-21T11:44:33;2.00;;;0.47;;
21181;SDS011;10749;46.296;7.524;2023-03-21T11:47:07;0.93;;;0.50;;
21181;SDS011;10749;46.296;7.524;2023-03-21T11:49:34;1.10;;;0.70;;
21181;SDS011;10749;46.296;7.524;2023-03-21T11:54:48;0.40;;;0.30;;
21181;SDS011;10749;46.296;7.524;2023-03-21T12:06:00;0.57;;;0.50;;
21181;SDS011;10749;46.296;7.524;2023-03-21T12:08:48;0.63;;;0.30;;
21181;SDS011;10749;46.296;7.524;2023-03-21T12:22:27;1.73;;;0.38;;
21181;SDS011;10749;46.296;7.524;2023-03-21T12:25:18;1.02;;;0.32;;
21181;SDS011;10749;46.296;7.524;2023-03-21T12:30:49;0.50;;;0.22;;
21181;SDS011;10749;46.296;7.524;2023-03-21T12:36:20;0.60;;;0.32;;
21181;SDS011;10749;46.296;7.524;2023-03-21T12:41:41;2.22;;;0.30;;
21181;SDS011;10749;46.296;7.524;2023-03-21T12:49:27;2.05;;;0.40;;
21181;SDS011;10749;46.296;7.524;2023-03-21T12:51:57;2.33;;;0.40;;
21181;SDS011;10749;46.296;7.524;2023-03-21T12:54:30;3.05;;;0.40;;
21181;SDS011;10749;46.296;7.524;2023-03-21T12:57:11;1.13;;;0.60;;
21181;SDS011;10749;46.296;7.524;2023-03-21T12:59:54;0.63;;;0.30;;
21181;SDS011;10749;46.296;7.524;2023-03-21T13:02:33;0.52;;;0.35;;
21181;SDS011;10749;46.296;7.524;2023-03-21T13:05:27;0.68;;;0.40;;
21181;SDS011;10749;46.296;7.524;2023-03-21T13:08:10;1.58;;;0.30;;
21181;SDS011;10749;46.296;7.524;2023-03-21T13:10:42;2.15;;;0.40;;
21181;SDS011;10749;46.296;7.524;2023-03-21T13:13:15;2.15;;;0.43;;
21181;SDS011;10749;46.296;7.524;2023-03-21T13:22:21;1.15;;;0.30;;
21181;SDS011;10749;46.296;7.524;2023-03-21T13:26:49;0.80;;;0.40;;
21181;SDS011;10749;46.296;7.524;2023-03-21T13:29:22;1.45;;;0.43;;
21181;SDS011;10749;46.296;7.524;2023-03-21T13:32:03;0.50;;;0.40;;
21181;SDS011;10749;46.296;7.524;2023-03-21T13:34:32;0.57;;;0.30;;
21181;SDS011;10749;46.296;7.524;2023-03-21T13:36:58;2.20;;;0.50;;
21181;SDS011;10749;46.296;7.524;2023-03-21T13:39:25;4.38;;;0.52;;
21181;SDS011;10749;46.296;7.524;2023-03-21T13:41:53;1.08;;;0.55;;
21181;SDS011;10749;46.296;7.524;2023-03-21T13:47:23;0.77;;;0.50;;
21181;SDS011;10749;46.296;7.524;2023-03-21T13:55:30;3.15;;;0.40;;
21181;SDS011;10749;46.296;7.524;2023-03-21T13:58:22;0.63;;;0.30;;
21181;SDS011;10749;46.296;7.524;2023-03-21T14:01:16;1.50;;;0.50;;
21181;SDS011;10749;46.296;7.524;2023-03-21T14:03:45;2.10;;;0.50;;
21181;SDS011;10749;46.296;7.524;2023-03-21T14:06:11;1.50;;;0.40;;
21181;SDS011;10749;46.296;7.524;2023-03-21T14:08:39;1.10;;;0.55;;
21181;SDS011;10749;46.296;7.524;2023-03-21T14:11:09;2.53;;;0.40;;
21181;SDS011;10749;46.296;7.524;2023-03-21T14:13:40;0.70;;;0.50;;
21181;SDS011;10749;46.296;7.524;2023-03-21T14:16:08;2.72;;;0.60;;
21181;SDS011;10749;46.296;7.524;2023-03-21T14:18:43;2.08;;;0.50;;
21181;SDS011;10749;46.296;7.524;2023-03-21T14:21:14;2.47;;;0.50;;
21181;SDS011;10749;46.296;7.524;2023-03-21T14:23:43;1.75;;;0.50;;
21181;SDS011;10749;46.296;7.524;2023-03-21T14:26:09;1.10;;;0.47;;
21181;SDS011;10749;46.296;7.524;2023-03-21T14:28:36;0.90;;;0.70;;
21181;SDS011;10749;46.296;7.524;2023-03-21T14:31:03;1.15;;;0.50;;
21181;SDS011;10749;46.296;7.524;2023-03-21T14:33:34;2.72;;;0.50;;
21181;SDS011;10749;46.296;7.524;2023-03-21T14:36:05;1.67;;;0.60;;
21181;SDS011;10749;46.296;7.524;2023-03-21T14:38:36;4.25;;;0.70;;
21181;SDS011;10749;46.296;7.524;2023-03-21T14:41:03;1.15;;;0.80;;
21181;SDS011;10749;46.296;7.524;2023-03-21T14:43:29;2.20;;;0.50;;
21181;SDS011;10749;46.296;7.524;2023-03-21T14:45:58;3.90;;;0.60;;
21181;SDS011;10749;46.296;7.524;2023-03-21T14:48:28;2.97;;;0.57;;
21181;SDS011;10749;46.296;7.524;2023-03-21T14:50:56;3.13;;;0.70;;
21181;SDS011;10749;46.296;7.524;2023-03-21T14:53:26;1.48;;;0.55;;
21181;SDS011;10749;46.296;7.524;2023-03-21T14:56:01;2.65;;;0.60;;
21181;SDS011;10749;46.296;7.524;2023-03-21T14:58:27;1.48;;;0.40;;
21181;SDS011;10749;46.296;7.524;2023-03-21T15:00:55;3.05;;;0.60;;
21181;SDS011;10749;46.296;7.524;2023-03-21T15:03:24;1.17;;;0.50;;
21181;SDS011;10749;46.296;7.524;2023-03-21T15:05:52;1.67;;;0.63;;
21181;SDS011;10749;46.296;7.524;2023-03-21T15:08:20;1.63;;;0.77;;
21181;SDS011;10749;46.296;7.524;2023-03-21T15:10:55;1.67;;;0.60;;
21181;SDS011;10749;46.296;7.524;2023-03-21T15:13:29;2.88;;;0.70;;
21181;SDS011;10749;46.296;7.524;2023-03-21T15:15:57;0.90;;;0.60;;
21181;SDS011;10749;46.296;7.524;2023-03-21T15:18:24;2.22;;;0.70;;
21181;SDS011;10749;46.296;7.524;2023-03-21T15:20:53;1.75;;;0.70;;
21181;SDS011;10749;46.296;7.524;2023-03-21T15:23:31;1.20;;;0.70;;
21181;SDS011;10749;46.296;7.524;2023-03-21T15:26:02;1.65;;;0.70;;
21181;SDS011;10749;46.296;7.524;2023-03-21T15:28:29;2.00;;;0.70;;
21181;SDS011;10749;46.296;7.524;2023-03-21T15:30:54;2.85;;;0.68;;
21181;SDS011;10749;46.296;7.524;2023-03-21T15:33:22;2.10;;;0.93;;
21181;SDS011;10749;46.296;7.524;2023-03-21T15:35:49;2.13;;;0.80;;
21181;SDS011;10749;46.296;7.524;2023-03-21T15:38:21;3.97;;;0.80;;
21181;SDS011;10749;46.296;7.524;2023-03-21T15:43:41;1.20;;;0.75;;
21181;SDS011;10749;46.296;7.524;2023-03-21T15:46:41;4.25;;;0.70;;
21181;SDS011;10749;46.296;7.524;2023-03-21T15:51:36;3.30;;;0.63;;
21181;SDS011;10749;46.296;7.524;2023-03-21T15:54:02;2.15;;;0.73;;
21181;SDS011;10749;46.296;7.524;2023-03-21T15:56:28;2.67;;;0.70;;
21181;SDS011;10749;46.296;7.524;2023-03-21T15:58:58;1.15;;;0.50;;
21181;SDS011;10749;46.296;7.524;2023-03-21T16:01:26;2.40;;;0.70;;
21181;SDS011;10749;46.296;7.524;2023-03-21T16:03:57;0.82;;;0.60;;
21181;SDS011;10749;46.296;7.524;2023-03-21T16:06:30;3.53;;;0.60;;
21181;SDS011;10749;46.296;7.524;2023-03-21T16:11:48;3.22;;;0.70;;
21181;SDS011;10749;46.296;7.524;2023-03-21T16:14:15;3.30;;;0.70;;
21181;SDS011;10749;46.296;7.524;2023-03-21T16:16:42;2.25;;;0.60;;
21181;SDS011;10749;46.296;7.524;2023-03-21T16:19:08;0.90;;;0.70;;
21181;SDS011;10749;46.296;7.524;2023-03-21T16:21:33;5.70;;;0.85;;
21181;SDS011;10749;46.296;7.524;2023-03-21T16:24:02;3.08;;;0.85;;
21181;SDS011;10749;46.296;7.524;2023-03-21T16:26:28;2.63;;;0.63;;
21181;SDS011;10749;46.296;7.524;2023-03-21T16:28:56;3.28;;;0.75;;
21181;SDS011;10749;46.296;7.524;2023-03-21T16:31:22;1.75;;;0.60;;
21181;SDS011;10749;46.296;7.524;2023-03-21T16:33:52;2.17;;;0.73;;
21181;SDS011;10749;46.296;7.524;2023-03-21T16:36:28;2.67;;;0.63;;
21181;SDS011;10749;46.296;7.524;2023-03-21T16:38:55;3.33;;;0.57;;
21181;SDS011;10749;46.296;7.524;2023-03-21T16:41:22;3.15;;;0.65;;
21181;SDS011;10749;46.296;7.524;2023-03-21T16:43:49;2.00;;;0.50;;
21181;SDS011;10749;46.296;7.524;2023-03-21T16:46:19;1.00;;;0.68;;
21181;SDS011;10749;46.296;7.524;2023-03-21T16:48:50;2.67;;;0.77;;
21181;SDS011;10749;46.296;7.524;2023-03-21T16:51:18;1.55;;;0.70;;